Taylorsville, GA (30178)

10:07 AM EDT on October 02, 2014 (GMT -0400)
Cartersville | Change Station
CLOSE
Current Station
Airport
Location: Cartersville,
Elevation: 764 ft
Nearby Weather Stations

Elev 764 ft 34.12 °N, 84.85 °W | Updated 14 minutes ago

Clear
Clear
71 °F
Feels Like 71 °F
N
5
Wind Variable Wind from East

Today
High -- | Low -- °F
--% Chance of Precip.
Yesterday
High -- | Low -- °F
Precip. -- in
7:35 AM 7:22 PM
First Quarter, 59% visible
Pressure 30.10 in
Visibility 10.0 miles
Clouds Clear
Dew Point 63 °F
Humidity 75%
Rainfall 0.00 in
Snow Depth Not available.
UV 2 out of 12
Pollen 6.80 out of 12
Ozone Good
PM2.5 Moderate
Flu Activity Not available.
METAR KVPC 021353Z AUTO 08004KT 10SM CLR 22/17 A3013 RMK AO2 SLP193 T02170172

More Conditions Fewer Conditions

Pressure 30.10 in
Visibility 10.0 miles
Clouds Clear
Dew Point 63 °F
Humidity 75%
Rainfall 0.00 in
Snow Depth Not available.
UV 2 out of 12
Pollen 6.80 out of 12
Ozone Good
PM2.5 Moderate
Flu Activity Not available.
METAR KVPC 021353Z AUTO 08004KT 10SM CLR 22/17 A3013 RMK AO2 SLP193 T02170172

More Conditions Fewer Conditions

10-Day Weather Forecast

Almanac

Astronomy

Oct. 02, 2014 Rise Set
Actual Time 7:35 AM EDT 7:22 PM EDT
Civil Twilight 7:10 AM EDT 7:47 PM EDT
Nautical Twilight 6:41 AM EDT 8:16 PM EDT
Astronomical Twilight 6:11 AM EDT 8:45 PM EDT
Moon 3:14 PM EDT 1:05 AM EDT
Length of Visible Light 12h 37m
Length of Day
11h 47m
Tomorrow will be 2m 6s shorter.
First Quarter, 59% of the Moon is Illuminated
Today
First Quarter
Oct 8
Full
Oct 15
Last Quarter
Oct 23
New
Oct 30
First Quarter

Today's Extremes

State Highs State Lows

Community

WunderPhotos

Upload Photos

1,758,247 photos uploaded!

WunderBlogs® & News

Nearby

Air Quality

  Air Quality AQ Index Pollutant
Yesterday Good
PM10
Yesterday Good
OZONE
Current Moderate
PM2.5
Current Good
OZONE
Thursday Good
OZONE
Thursday Good
PM2.5

Snow Depth

Station Depth Elevation
No new snow has been reported.

Earthquake Activity

City Distance Mag. Time & Date
No recent earthquake activity has been reported nearby.
Minimum magnitude displayed is 2.5.

Coastal Water Temperatures

Place Temperature
No Stations Reporting

Nearby Weather Stations